createdAt,value
2018-12-29T00:00:27.671Z,63.27
2018-12-29T00:00:58.823Z,63.06
2018-12-29T00:01:29.997Z,63.03
2018-12-29T00:02:01.134Z,63.05
2018-12-29T00:02:32.297Z,63.08
2018-12-29T00:03:03.450Z,63.26
2018-12-29T00:03:34.660Z,63.39
2018-12-29T00:04:05.821Z,63.40
2018-12-29T00:04:36.973Z,63.40
2018-12-29T00:05:08.117Z,63.46
2018-12-29T00:05:39.274Z,63.41
2018-12-29T00:06:10.429Z,63.37
2018-12-29T00:06:41.572Z,63.28
2018-12-29T00:07:12.716Z,63.34
2018-12-29T00:07:43.871Z,63.37
2018-12-29T00:08:15.025Z,63.38
2018-12-29T00:08:46.210Z,63.44
2018-12-29T00:09:17.385Z,63.49
2018-12-29T00:09:48.530Z,63.47
2018-12-29T00:10:19.675Z,63.50
2018-12-29T00:10:50.847Z,63.59
2018-12-29T00:11:21.989Z,63.67
2018-12-29T00:11:53.177Z,63.75
2018-12-29T00:12:24.333Z,63.78
2018-12-29T00:12:55.483Z,63.73
2018-12-29T00:13:26.634Z,63.67
2018-12-29T00:13:57.776Z,63.72
2018-12-29T00:14:28.921Z,63.86
2018-12-29T00:15:00.118Z,63.92
2018-12-29T00:15:31.307Z,63.89
2018-12-29T00:16:02.497Z,63.39
2018-12-29T00:16:33.649Z,63.25
2018-12-29T00:17:04.815Z,63.20
2018-12-29T00:17:35.939Z,63.12
2018-12-29T00:18:07.089Z,63.22
2018-12-29T00:18:38.241Z,63.17
2018-12-29T00:19:09.433Z,63.14
2018-12-29T00:19:40.630Z,63.21
2018-12-29T00:20:11.824Z,63.23
2018-12-29T00:20:43.023Z,63.42
2018-12-29T00:21:14.169Z,63.57
2018-12-29T00:21:45.323Z,63.62
2018-12-29T00:22:16.482Z,63.62
2018-12-29T00:22:47.637Z,63.58
2018-12-29T00:23:18.831Z,63.61
2018-12-29T00:23:49.987Z,63.62
2018-12-29T00:24:21.143Z,63.72
2018-12-29T00:24:52.295Z,63.71
2018-12-29T00:25:23.447Z,63.66
2018-12-29T00:25:54.652Z,63.61
2018-12-29T00:26:25.793Z,63.68
2018-12-29T00:26:56.950Z,63.72
2018-12-29T00:27:28.095Z,63.80
2018-12-29T00:27:59.248Z,63.71
2018-12-29T00:28:30.430Z,63.60
2018-12-29T00:29:01.586Z,63.58
2018-12-29T00:29:32.740Z,63.78
2018-12-29T00:30:03.881Z,63.93
2018-12-29T00:30:35.077Z,64.03
2018-12-29T00:31:06.238Z,64.06
2018-12-29T00:31:37.380Z,64.18
2018-12-29T00:32:08.526Z,64.21
2018-12-29T00:32:39.676Z,64.21
2018-12-29T00:33:10.824Z,64.21
2018-12-29T00:33:41.982Z,64.25
2018-12-29T00:34:13.118Z,64.23
2018-12-29T00:34:44.263Z,64.20
2018-12-29T00:35:15.408Z,64.30
2018-12-29T00:35:46.600Z,64.25
2018-12-29T00:36:17.744Z,64.23
2018-12-29T00:36:48.936Z,64.19
2018-12-29T00:37:20.076Z,64.18
2018-12-29T00:37:51.232Z,64.23
2018-12-29T00:38:22.381Z,64.13
2018-12-29T00:38:53.536Z,64.13
2018-12-29T00:39:24.680Z,64.08
2018-12-29T00:39:55.831Z,64.01
2018-12-29T00:40:27.035Z,64.00
2018-12-29T00:40:58.179Z,63.97
2018-12-29T00:41:29.337Z,63.88
2018-12-29T00:42:00.484Z,63.97
2018-12-29T00:42:31.641Z,63.79
2018-12-29T00:43:02.795Z,63.87
2018-12-29T00:43:33.967Z,63.94
2018-12-29T00:44:05.100Z,63.91
2018-12-29T00:44:36.244Z,63.86
2018-12-29T00:45:07.402Z,63.74
2018-12-29T00:45:38.588Z,63.69
2018-12-29T00:46:09.787Z,63.63
2018-12-29T00:46:40.922Z,63.46
2018-12-29T00:47:12.097Z,63.42
2018-12-29T00:47:43.258Z,63.44
2018-12-29T00:48:14.417Z,63.29
2018-12-29T00:48:45.564Z,63.39
2018-12-29T00:49:16.714Z,63.19
2018-12-29T00:49:47.861Z,63.06
2018-12-29T00:50:19.008Z,63.10
2018-12-29T00:50:50.204Z,63.04
2018-12-29T00:51:21.358Z,63.09
2018-12-29T00:51:52.513Z,63.12
2018-12-29T00:52:23.758Z,63.23
2018-12-29T00:52:54.860Z,63.29
2018-12-29T00:53:26.025Z,63.33
2018-12-29T00:53:57.156Z,63.41
2018-12-29T00:54:28.306Z,63.41
2018-12-29T00:54:59.471Z,63.42
2018-12-29T00:55:30.607Z,63.41
2018-12-29T00:56:01.802Z,63.33
2018-12-29T00:56:32.950Z,63.39
2018-12-29T00:57:04.104Z,63.48
2018-12-29T00:57:35.256Z,63.37
2018-12-29T00:58:06.408Z,63.25
2018-12-29T00:58:37.549Z,63.16
2018-12-29T00:59:08.695Z,62.84
2018-12-29T00:59:39.837Z,62.76
2018-12-29T01:00:10.993Z,62.83
2018-12-29T01:00:42.192Z,62.85
2018-12-29T01:01:13.353Z,62.87
2018-12-29T01:01:44.501Z,62.90
2018-12-29T01:02:15.711Z,62.95
2018-12-29T01:02:46.857Z,62.90
2018-12-29T01:03:18.008Z,62.87
2018-12-29T01:03:49.170Z,62.79
2018-12-29T01:04:20.325Z,62.79
2018-12-29T01:04:51.470Z,62.91
2018-12-29T01:05:22.647Z,63.00
2018-12-29T01:05:53.838Z,63.21
2018-12-29T01:06:24.984Z,63.20
2018-12-29T01:06:56.135Z,63.15
2018-12-29T01:07:27.317Z,63.37
2018-12-29T01:07:58.489Z,63.34
2018-12-29T01:08:29.640Z,63.23
2018-12-29T01:09:00.821Z,63.18
2018-12-29T01:09:32.015Z,63.08
2018-12-29T01:10:03.168Z,63.15
2018-12-29T01:10:34.329Z,63.21
2018-12-29T01:11:05.480Z,63.21
2018-12-29T01:11:36.617Z,62.95
2018-12-29T01:12:07.810Z,62.74
2018-12-29T01:12:38.967Z,62.76
2018-12-29T01:13:10.110Z,62.74
2018-12-29T01:13:41.266Z,62.69
2018-12-29T01:14:12.408Z,62.93
2018-12-29T01:14:43.550Z,63.01
2018-12-29T01:15:14.753Z,63.11
2018-12-29T01:15:45.909Z,63.09
2018-12-29T01:16:17.051Z,63.06
2018-12-29T01:16:48.204Z,63.04
2018-12-29T01:17:19.348Z,63.20
2018-12-29T01:17:50.504Z,63.24
2018-12-29T01:18:21.647Z,63.26
2018-12-29T01:18:52.789Z,63.33
2018-12-29T01:19:23.940Z,63.33
2018-12-29T01:19:55.139Z,63.28
2018-12-29T01:20:26.310Z,63.33
2018-12-29T01:20:57.515Z,63.47
2018-12-29T01:21:28.670Z,63.49
2018-12-29T01:21:59.825Z,63.40
2018-12-29T01:22:30.977Z,63.43
2018-12-29T01:23:02.125Z,63.42
2018-12-29T01:23:33.342Z,63.47
2018-12-29T01:24:04.481Z,63.50
2018-12-29T01:24:35.630Z,63.34
2018-12-29T01:25:06.773Z,63.21
2018-12-29T01:25:37.921Z,63.19
2018-12-29T01:26:09.069Z,63.25
2018-12-29T01:26:40.229Z,63.36
2018-12-29T01:27:11.365Z,63.37
2018-12-29T01:27:42.510Z,63.32
2018-12-29T01:28:13.666Z,63.14
2018-12-29T01:28:44.852Z,63.08
2018-12-29T01:29:16.004Z,63.05
2018-12-29T01:29:47.142Z,62.94
2018-12-29T01:30:18.295Z,62.90
2018-12-29T01:30:49.444Z,62.77
2018-12-29T01:31:20.587Z,62.66
2018-12-29T01:31:51.731Z,62.31
2018-12-29T01:32:22.963Z,62.00
2018-12-29T01:32:54.118Z,62.08
2018-12-29T01:33:25.273Z,62.02
2018-12-29T01:33:56.420Z,62.15
2018-12-29T01:34:27.648Z,62.12
2018-12-29T01:34:58.814Z,62.16
2018-12-29T01:35:29.980Z,62.09
2018-12-29T01:36:01.132Z,61.93
2018-12-29T01:36:32.286Z,61.78
2018-12-29T01:37:03.451Z,61.25
2018-12-29T01:37:34.626Z,60.88
2018-12-29T01:38:05.780Z,60.88
2018-12-29T01:38:36.987Z,60.89
2018-12-29T01:39:08.147Z,61.23
2018-12-29T01:39:39.331Z,61.47
2018-12-29T01:40:10.480Z,61.40
2018-12-29T01:40:41.637Z,61.28
2018-12-29T01:41:12.877Z,61.38
2018-12-29T01:41:44.033Z,61.35
2018-12-29T01:42:15.175Z,61.45
2018-12-29T01:42:46.350Z,61.42
2018-12-29T01:43:17.486Z,61.34
2018-12-29T01:43:48.633Z,61.21
2018-12-29T01:44:19.782Z,60.89
2018-12-29T01:44:50.933Z,60.88
2018-12-29T01:45:22.086Z,60.94
2018-12-29T01:45:53.238Z,61.06
2018-12-29T01:46:24.448Z,61.01
2018-12-29T01:46:55.612Z,60.62
2018-12-29T01:47:26.765Z,60.46
2018-12-29T01:47:57.916Z,60.47
2018-12-29T01:48:29.077Z,60.40
2018-12-29T01:49:00.223Z,60.30
2018-12-29T01:49:31.383Z,60.24
2018-12-29T01:50:02.618Z,60.52
2018-12-29T01:50:33.772Z,60.56
2018-12-29T01:51:04.926Z,60.60
2018-12-29T01:51:36.140Z,60.56
2018-12-29T01:52:07.296Z,60.43
2018-12-29T01:52:38.441Z,60.42
2018-12-29T01:53:09.704Z,60.13
2018-12-29T01:53:40.841Z,60.07
2018-12-29T01:54:13.495Z,60.21
2018-12-29T01:54:44.649Z,60.23
2018-12-29T01:55:15.813Z,60.38
2018-12-29T01:55:46.952Z,60.39
2018-12-29T01:56:18.092Z,60.36
2018-12-29T01:56:49.307Z,60.48
2018-12-29T01:57:20.447Z,60.61
2018-12-29T01:57:51.592Z,60.22
2018-12-29T01:58:22.741Z,60.18
2018-12-29T01:58:53.877Z,60.12
2018-12-29T01:59:25.027Z,60.13
2018-12-29T01:59:56.180Z,60.32
2018-12-29T02:00:27.384Z,60.20
2018-12-29T02:00:58.547Z,60.06
2018-12-29T02:01:29.682Z,60.31
2018-12-29T02:02:00.875Z,60.33
2018-12-29T02:02:32.017Z,60.03
2018-12-29T02:03:03.174Z,60.11
2018-12-29T02:03:34.352Z,60.03
2018-12-29T02:04:05.504Z,59.80
2018-12-29T02:04:36.644Z,59.75
2018-12-29T02:05:07.793Z,59.86
2018-12-29T02:05:38.941Z,59.79
2018-12-29T02:06:10.086Z,59.47
2018-12-29T02:06:41.229Z,58.81
2018-12-29T02:07:12.440Z,58.89
2018-12-29T02:07:43.643Z,59.12
2018-12-29T02:08:14.825Z,59.39
2018-12-29T02:08:45.935Z,59.54
2018-12-29T02:09:17.080Z,59.25
2018-12-29T02:09:48.241Z,59.08
2018-12-29T02:10:19.374Z,59.20
2018-12-29T02:10:50.525Z,59.08
2018-12-29T02:11:21.669Z,59.12
2018-12-29T02:11:52.861Z,59.11
2018-12-29T02:12:24.013Z,59.23
2018-12-29T02:12:55.151Z,59.17
2018-12-29T02:13:26.301Z,59.39
2018-12-29T02:13:57.452Z,59.64
2018-12-29T02:14:28.600Z,59.63
2018-12-29T02:14:59.742Z,59.41
2018-12-29T02:15:30.927Z,59.43
2018-12-29T02:16:02.092Z,59.64
2018-12-29T02:16:33.237Z,59.44
2018-12-29T02:17:04.424Z,59.59
2018-12-29T02:17:37.546Z,59.60
2018-12-29T02:18:08.438Z,60.21
2018-12-29T02:18:39.574Z,60.14
2018-12-29T02:19:10.851Z,61.00
2018-12-29T02:19:42.033Z,61.42
2018-12-29T02:20:13.186Z,62.26
2018-12-29T02:20:44.324Z,61.95
2018-12-29T02:21:15.473Z,61.84
2018-12-29T02:21:46.627Z,62.34
2018-12-29T02:22:17.786Z,62.90
2018-12-29T02:22:48.924Z,63.31
2018-12-29T02:23:20.072Z,63.85
2018-12-29T02:23:51.258Z,65.13
2018-12-29T02:24:22.404Z,65.36
2018-12-29T02:24:53.541Z,65.94
2018-12-29T02:25:24.686Z,67.06
2018-12-29T02:25:55.832Z,67.96
2018-12-29T02:26:26.981Z,67.69
2018-12-29T02:26:58.126Z,68.14
2018-12-29T02:27:29.274Z,68.75
2018-12-29T02:28:00.418Z,68.37
2018-12-29T02:28:31.567Z,68.10
2018-12-29T02:29:02.764Z,68.36
2018-12-29T02:29:33.913Z,68.67
2018-12-29T02:30:05.060Z,69.22
2018-12-29T02:30:36.193Z,69.61
2018-12-29T02:31:07.331Z,69.80
2018-12-29T02:31:38.486Z,68.86
2018-12-29T02:32:09.622Z,69.36
2018-12-29T02:32:40.767Z,70.20
2018-12-29T02:33:11.907Z,70.22
2018-12-29T02:33:43.103Z,70.33
2018-12-29T02:34:14.244Z,70.62
2018-12-29T02:34:45.390Z,71.78
2018-12-29T02:35:16.535Z,71.41
2018-12-29T02:35:47.686Z,71.50
2018-12-29T02:36:18.831Z,72.24
2018-12-29T02:36:49.993Z,72.25
2018-12-29T02:37:23.081Z,73.53
2018-12-29T02:37:54.157Z,73.27
2018-12-29T02:38:25.297Z,73.44
2018-12-29T02:38:56.570Z,73.64
2018-12-29T02:39:27.723Z,74.83
2018-12-29T02:39:58.870Z,74.10
2018-12-29T02:40:30.007Z,73.88
2018-12-29T02:41:01.153Z,74.51
2018-12-29T02:41:32.292Z,74.39
2018-12-29T02:42:03.447Z,74.51
2018-12-29T02:42:34.584Z,75.06
2018-12-29T02:43:05.727Z,74.75
2018-12-29T02:43:36.878Z,74.99
2018-12-29T02:44:08.062Z,74.75
2018-12-29T02:44:39.197Z,74.98
2018-12-29T02:45:10.345Z,75.61
2018-12-29T02:45:41.497Z,75.03
2018-12-29T02:46:12.635Z,74.86
2018-12-29T02:46:43.870Z,75.61
2018-12-29T02:47:15.006Z,75.14
2018-12-29T02:47:46.160Z,74.92
2018-12-29T02:48:17.300Z,74.82
2018-12-29T02:48:48.452Z,75.20
2018-12-29T02:49:19.614Z,75.22
2018-12-29T02:49:50.807Z,74.40
2018-12-29T02:50:21.953Z,74.56
2018-12-29T02:50:53.097Z,74.73
2018-12-29T02:51:24.250Z,74.58
2018-12-29T02:51:55.414Z,74.51
2018-12-29T02:52:26.636Z,74.49
2018-12-29T02:52:57.833Z,74.00
2018-12-29T02:53:28.978Z,74.51
2018-12-29T02:54:00.174Z,74.17
2018-12-29T02:54:31.322Z,74.58
2018-12-29T02:55:02.476Z,74.42
2018-12-29T02:55:33.695Z,74.27
2018-12-29T02:56:04.843Z,74.20
2018-12-29T02:56:35.988Z,74.27
2018-12-29T02:57:07.136Z,74.56
2018-12-29T02:57:38.358Z,74.44
2018-12-29T02:58:09.545Z,74.35
2018-12-29T02:58:40.698Z,74.43
2018-12-29T02:59:11.823Z,74.34
2018-12-29T02:59:42.956Z,74.47
2018-12-29T03:00:14.107Z,74.55
2018-12-29T03:00:45.254Z,74.62
2018-12-29T03:01:16.393Z,74.60
2018-12-29T03:01:47.546Z,74.51
2018-12-29T03:02:18.687Z,74.18
2018-12-29T03:02:49.879Z,74.01
2018-12-29T03:03:21.029Z,74.22
2018-12-29T03:03:52.330Z,74.33
2018-12-29T03:04:23.481Z,74.50
2018-12-29T03:04:54.640Z,74.77
2018-12-29T03:05:25.798Z,74.54
2018-12-29T03:05:56.933Z,74.07
2018-12-29T03:06:28.085Z,74.47
2018-12-29T03:06:59.241Z,74.68
2018-12-29T03:07:30.386Z,75.06
2018-12-29T03:08:01.539Z,75.08
2018-12-29T03:08:32.687Z,75.20
2018-12-29T03:09:03.883Z,75.04
2018-12-29T03:09:35.034Z,75.26
2018-12-29T03:10:06.179Z,75.41
2018-12-29T03:10:37.359Z,75.36
2018-12-29T03:11:08.525Z,75.33
2018-12-29T03:11:39.670Z,75.39
2018-12-29T03:12:10.890Z,75.15
2018-12-29T03:12:42.029Z,74.79
2018-12-29T03:13:13.231Z,75.43
2018-12-29T03:13:44.382Z,75.42
2018-12-29T03:14:15.521Z,75.61
2018-12-29T03:14:46.668Z,75.54
2018-12-29T03:15:17.810Z,76.01
2018-12-29T03:15:48.956Z,75.85
2018-12-29T03:16:20.098Z,75.93
2018-12-29T03:16:51.252Z,76.34
2018-12-29T03:17:22.394Z,76.73
2018-12-29T03:17:53.553Z,76.83
2018-12-29T03:18:24.708Z,77.02
2018-12-29T03:18:55.863Z,77.06
2018-12-29T03:19:27.058Z,77.04
2018-12-29T03:19:58.214Z,77.11
2018-12-29T03:20:29.370Z,76.88
2018-12-29T03:21:00.513Z,76.99
2018-12-29T03:21:31.666Z,77.01
2018-12-29T03:22:02.820Z,76.71
2018-12-29T03:22:33.979Z,76.58
2018-12-29T03:23:05.137Z,76.44
2018-12-29T03:23:36.294Z,75.74
2018-12-29T03:24:07.443Z,75.66
2018-12-29T03:24:38.630Z,75.36
2018-12-29T03:25:09.777Z,74.35
2018-12-29T03:25:40.917Z,74.25
2018-12-29T03:26:12.066Z,74.06
2018-12-29T03:26:43.223Z,73.82
2018-12-29T03:27:14.410Z,73.72
2018-12-29T03:27:45.563Z,73.80
2018-12-29T03:28:16.699Z,73.94
2018-12-29T03:28:47.846Z,73.39
2018-12-29T03:29:18.999Z,73.57
2018-12-29T03:29:50.160Z,72.75
2018-12-29T03:30:21.301Z,72.57
2018-12-29T03:30:52.443Z,72.38
2018-12-29T03:31:23.578Z,71.74
2018-12-29T03:31:54.733Z,71.81
2018-12-29T03:32:25.915Z,71.80
2018-12-29T03:32:57.077Z,71.71
2018-12-29T03:33:28.218Z,71.92
2018-12-29T03:33:59.403Z,71.99
2018-12-29T03:34:30.557Z,71.92
2018-12-29T03:35:01.699Z,72.53
2018-12-29T03:35:32.843Z,72.05
2018-12-29T03:36:03.988Z,71.74
2018-12-29T03:36:35.129Z,72.01
2018-12-29T03:37:06.280Z,71.99
2018-12-29T03:37:37.417Z,71.64
2018-12-29T03:38:08.559Z,71.48
2018-12-29T03:38:39.705Z,71.33
2018-12-29T03:39:10.904Z,71.85
2018-12-29T03:39:42.066Z,71.45
2018-12-29T03:40:13.220Z,71.17
2018-12-29T03:40:44.371Z,71.44
2018-12-29T03:41:15.522Z,71.50
2018-12-29T03:41:46.680Z,71.25
2018-12-29T03:42:17.823Z,71.59
2018-12-29T03:42:48.966Z,71.32
2018-12-29T03:43:20.173Z,71.61
2018-12-29T03:43:51.315Z,71.79
2018-12-29T03:44:22.484Z,71.51
2018-12-29T03:44:53.622Z,71.63
2018-12-29T03:45:24.775Z,72.06
2018-12-29T03:45:55.919Z,71.76
2018-12-29T03:46:27.070Z,71.04
2018-12-29T03:46:58.258Z,71.06
2018-12-29T03:47:29.408Z,70.71
2018-12-29T03:48:00.556Z,69.89
2018-12-29T03:48:31.751Z,69.30
2018-12-29T03:49:02.893Z,69.70
2018-12-29T03:49:34.087Z,69.22
2018-12-29T03:50:05.222Z,69.57
2018-12-29T03:50:36.406Z,69.91
2018-12-29T03:51:07.521Z,69.49
2018-12-29T03:51:38.688Z,69.26
2018-12-29T03:52:09.830Z,69.62
2018-12-29T03:52:40.978Z,70.00
2018-12-29T03:53:12.131Z,69.53
2018-12-29T03:53:43.283Z,69.66
2018-12-29T03:54:14.462Z,70.29
2018-12-29T03:54:45.623Z,69.77
2018-12-29T03:55:16.781Z,70.02
2018-12-29T03:55:47.926Z,69.86
2018-12-29T03:56:19.060Z,70.09
2018-12-29T03:56:50.213Z,69.82
2018-12-29T03:57:21.366Z,69.72
2018-12-29T03:57:52.513Z,69.70
2018-12-29T03:58:23.777Z,69.75
2018-12-29T03:58:54.921Z,69.94
2018-12-29T03:59:26.062Z,70.03
2018-12-29T03:59:57.214Z,70.04
2018-12-29T04:00:28.355Z,69.90
2018-12-29T04:00:59.509Z,70.46
2018-12-29T04:01:30.666Z,70.65
2018-12-29T04:02:01.806Z,70.18
2018-12-29T04:02:32.957Z,70.08
2018-12-29T04:03:04.145Z,69.58
2018-12-29T04:03:35.299Z,70.01
2018-12-29T04:04:06.436Z,69.72
2018-12-29T04:04:37.584Z,69.75
2018-12-29T04:05:08.735Z,70.01
2018-12-29T04:05:39.881Z,69.22
2018-12-29T04:06:11.021Z,69.41
2018-12-29T04:06:42.161Z,69.52
2018-12-29T04:07:13.364Z,70.11
2018-12-29T04:07:44.512Z,69.99
2018-12-29T04:08:15.670Z,69.46
2018-12-29T04:08:46.866Z,69.59
2018-12-29T04:09:18.009Z,69.36
2018-12-29T04:09:49.184Z,69.53
2018-12-29T04:10:20.335Z,69.51
2018-12-29T04:10:51.478Z,69.73
2018-12-29T04:11:22.635Z,69.24
2018-12-29T04:11:53.785Z,69.34
2018-12-29T04:12:25.023Z,69.71
2018-12-29T04:12:56.184Z,69.75
2018-12-29T04:13:27.322Z,69.41
2018-12-29T04:13:58.513Z,69.60
2018-12-29T04:14:29.665Z,69.07
2018-12-29T04:15:00.853Z,69.10
2018-12-29T04:15:31.992Z,69.19
2018-12-29T04:16:03.248Z,69.40
2018-12-29T04:16:34.400Z,68.82
2018-12-29T04:17:05.549Z,69.00
2018-12-29T04:17:36.752Z,69.10
2018-12-29T04:18:07.900Z,69.26
2018-12-29T04:18:39.051Z,68.51
2018-12-29T04:19:10.195Z,68.59
2018-12-29T04:19:41.405Z,68.61
2018-12-29T04:20:12.543Z,68.96
2018-12-29T04:20:43.694Z,69.09
2018-12-29T04:21:14.855Z,68.98
2018-12-29T04:21:46.042Z,68.75
2018-12-29T04:22:17.182Z,68.52
2018-12-29T04:22:48.364Z,68.73
2018-12-29T04:23:19.538Z,68.91
2018-12-29T04:23:50.697Z,68.98
2018-12-29T04:24:21.854Z,69.32
2018-12-29T04:24:53.066Z,69.06
2018-12-29T04:25:24.257Z,69.63
2018-12-29T04:25:55.367Z,69.88
2018-12-29T04:26:26.527Z,68.95
2018-12-29T04:26:57.684Z,69.03
2018-12-29T04:27:28.839Z,69.02
2018-12-29T04:28:00.008Z,68.69
2018-12-29T04:28:31.167Z,68.61
2018-12-29T04:29:02.383Z,68.12
2018-12-29T04:29:33.531Z,68.28
2018-12-29T04:30:04.684Z,68.40
2018-12-29T04:30:35.830Z,68.59
2018-12-29T04:31:07.050Z,68.50
2018-12-29T04:31:38.226Z,68.07
2018-12-29T04:32:11.461Z,68.31
2018-12-29T04:32:42.615Z,69.09
2018-12-29T04:33:13.755Z,69.17
2018-12-29T04:33:44.908Z,69.09
2018-12-29T04:34:16.099Z,68.83
2018-12-29T04:34:47.254Z,68.98
2018-12-29T04:35:18.402Z,69.10
2018-12-29T04:35:49.553Z,69.44
2018-12-29T04:36:20.711Z,69.41
2018-12-29T04:36:51.857Z,69.74
2018-12-29T04:37:23.007Z,69.94
2018-12-29T04:37:54.166Z,69.37
2018-12-29T04:38:25.320Z,69.31
2018-12-29T04:38:56.477Z,69.73
2018-12-29T04:39:27.675Z,69.42
2018-12-29T04:39:58.827Z,69.62
2018-12-29T04:40:30.036Z,69.95
2018-12-29T04:41:01.198Z,69.73
2018-12-29T04:41:32.356Z,70.03
2018-12-29T04:42:03.551Z,69.83
2018-12-29T04:42:34.704Z,70.30
2018-12-29T04:43:05.853Z,70.21
2018-12-29T04:43:37.006Z,70.28
2018-12-29T04:44:08.160Z,70.52
2018-12-29T04:44:39.300Z,70.37
2018-12-29T04:45:10.448Z,70.24
2018-12-29T04:45:41.599Z,70.12
2018-12-29T04:46:12.787Z,70.19
2018-12-29T04:46:43.940Z,70.30
2018-12-29T04:47:15.081Z,70.40
2018-12-29T04:47:46.247Z,70.50
2018-12-29T04:48:17.392Z,70.66
2018-12-29T04:48:48.551Z,70.61
2018-12-29T04:49:19.697Z,70.82
2018-12-29T04:49:50.844Z,70.78
2018-12-29T04:50:22.001Z,70.99
2018-12-29T04:50:53.202Z,70.95
2018-12-29T04:51:24.414Z,71.04
2018-12-29T04:51:55.569Z,70.91
2018-12-29T04:52:26.722Z,71.02
2018-12-29T04:52:57.877Z,70.77
2018-12-29T04:53:29.023Z,70.91
2018-12-29T04:54:00.172Z,70.89
2018-12-29T04:54:31.322Z,70.91
2018-12-29T04:55:02.475Z,71.06
2018-12-29T04:55:33.619Z,71.01
2018-12-29T04:56:04.843Z,71.15
2018-12-29T04:56:36.001Z,71.11
2018-12-29T04:57:07.148Z,70.63
2018-12-29T04:57:38.302Z,70.59
2018-12-29T04:58:09.453Z,70.65
2018-12-29T04:58:40.616Z,70.90
2018-12-29T04:59:11.769Z,70.92
2018-12-29T04:59:42.913Z,70.93
2018-12-29T05:00:14.058Z,70.83
2018-12-29T05:00:45.281Z,70.78
2018-12-29T05:01:16.441Z,70.91
2018-12-29T05:01:47.624Z,70.88
2018-12-29T05:02:18.779Z,71.00
2018-12-29T05:02:49.928Z,71.11
2018-12-29T05:03:21.119Z,71.10
2018-12-29T05:03:52.276Z,70.88
2018-12-29T05:04:23.431Z,70.95
2018-12-29T05:04:54.628Z,71.15
2018-12-29T05:05:25.726Z,71.13
2018-12-29T05:05:56.927Z,70.95
2018-12-29T05:06:28.071Z,70.61
2018-12-29T05:06:59.271Z,70.44
2018-12-29T05:07:30.414Z,70.44
2018-12-29T05:08:01.574Z,70.71
2018-12-29T05:08:32.707Z,70.14
2018-12-29T05:09:03.858Z,70.14
2018-12-29T05:09:35.008Z,70.26
2018-12-29T05:10:06.167Z,70.36
2018-12-29T05:10:37.343Z,70.16
2018-12-29T05:11:08.500Z,69.55
2018-12-29T05:11:39.661Z,69.49
2018-12-29T05:12:10.853Z,69.80
2018-12-29T05:12:42.007Z,69.57
2018-12-29T05:13:13.164Z,69.55
2018-12-29T05:13:44.307Z,69.53
2018-12-29T05:14:15.459Z,69.74
2018-12-29T05:14:46.620Z,69.41
2018-12-29T05:15:17.771Z,69.26
2018-12-29T05:15:48.914Z,69.33
2018-12-29T05:16:20.109Z,69.19
2018-12-29T05:16:51.314Z,69.51
2018-12-29T05:17:22.453Z,69.46
2018-12-29T05:17:53.604Z,68.90
2018-12-29T05:18:24.741Z,68.46
2018-12-29T05:18:55.887Z,68.16
2018-12-29T05:19:27.042Z,68.38
2018-12-29T05:19:58.198Z,68.50
2018-12-29T05:20:29.352Z,68.55
2018-12-29T05:21:00.495Z,68.49
2018-12-29T05:21:31.641Z,67.34
2018-12-29T05:22:02.833Z,66.92
2018-12-29T05:22:33.978Z,66.95
2018-12-29T05:23:05.289Z,66.79
2018-12-29T05:23:36.445Z,66.48
2018-12-29T05:24:07.597Z,66.91
2018-12-29T05:24:38.741Z,66.54
2018-12-29T05:25:09.900Z,66.42
2018-12-29T05:25:41.046Z,65.72
2018-12-29T05:26:12.193Z,66.37
2018-12-29T05:26:43.350Z,66.05
2018-12-29T05:27:14.513Z,65.58
2018-12-29T05:27:45.661Z,65.22
2018-12-29T05:28:16.958Z,65.13
2018-12-29T05:28:48.102Z,64.50
2018-12-29T05:29:19.259Z,64.56
2018-12-29T05:29:53.392Z,64.19
2018-12-29T05:30:24.534Z,63.69
2018-12-29T05:30:55.690Z,64.37
2018-12-29T05:31:26.846Z,64.55
2018-12-29T05:31:58.001Z,64.20
2018-12-29T05:32:29.140Z,64.02
2018-12-29T05:33:00.290Z,64.58
2018-12-29T05:33:31.479Z,63.85
2018-12-29T05:34:02.702Z,63.87
2018-12-29T05:34:33.854Z,63.84
2018-12-29T05:35:05.020Z,63.45
2018-12-29T05:35:36.172Z,64.14
2018-12-29T05:36:07.323Z,64.28
2018-12-29T05:36:38.463Z,63.67
2018-12-29T05:37:09.615Z,63.35
2018-12-29T05:37:40.816Z,63.59
2018-12-29T05:38:11.956Z,63.40
2018-12-29T05:38:43.140Z,63.51
2018-12-29T05:39:14.281Z,63.57
2018-12-29T05:39:45.420Z,63.31
2018-12-29T05:40:16.627Z,63.27
2018-12-29T05:40:47.829Z,62.88
2018-12-29T05:41:19.079Z,62.93
2018-12-29T05:41:50.252Z,62.96
2018-12-29T05:42:21.379Z,63.24
2018-12-29T05:42:52.540Z,63.41
2018-12-29T05:43:23.685Z,63.60
2018-12-29T05:43:57.754Z,62.58
2018-12-29T05:44:31.906Z,62.28
2018-12-29T05:45:03.783Z,62.89
2018-12-29T05:45:35.058Z,62.69
2018-12-29T05:46:06.298Z,63.10
2018-12-29T05:46:37.394Z,63.35
2018-12-29T05:47:08.542Z,62.47
2018-12-29T05:47:39.684Z,62.83
2018-12-29T05:48:10.832Z,62.22
2018-12-29T05:48:41.984Z,62.09
2018-12-29T05:49:13.172Z,62.80
2018-12-29T05:49:44.380Z,62.07
2018-12-29T05:50:15.528Z,61.91
2018-12-29T05:50:46.690Z,62.49
2018-12-29T05:51:17.837Z,62.46
2018-12-29T05:51:48.981Z,62.33
2018-12-29T05:52:20.131Z,62.13
2018-12-29T05:52:51.267Z,62.39
2018-12-29T05:53:22.409Z,62.09
2018-12-29T05:53:53.608Z,62.64
2018-12-29T05:54:24.763Z,63.28
2018-12-29T05:54:55.942Z,62.51
2018-12-29T05:55:27.082Z,62.32
2018-12-29T05:55:58.229Z,63.28
2018-12-29T05:56:29.364Z,61.95
2018-12-29T05:57:00.517Z,62.66
2018-12-29T05:57:31.696Z,62.39
2018-12-29T05:58:02.840Z,62.10
2018-12-29T05:58:33.984Z,61.77
2018-12-29T05:59:05.135Z,61.26
2018-12-29T05:59:36.280Z,61.39
2018-12-29T06:00:07.457Z,61.97
2018-12-29T06:00:39.671Z,61.99
2018-12-29T06:01:10.850Z,61.26
2018-12-29T06:01:41.991Z,62.19
2018-12-29T06:02:13.147Z,62.33
2018-12-29T06:02:44.346Z,62.47
2018-12-29T06:03:15.497Z,61.55
2018-12-29T06:03:46.639Z,61.31
2018-12-29T06:04:17.792Z,61.78
2018-12-29T06:04:48.940Z,60.96
2018-12-29T06:05:20.083Z,61.10
2018-12-29T06:05:51.223Z,61.12
2018-12-29T06:06:22.496Z,61.25
2018-12-29T06:06:53.652Z,61.47
2018-12-29T06:07:24.809Z,61.72
2018-12-29T06:07:55.950Z,61.74
2018-12-29T06:08:27.106Z,61.87
2018-12-29T06:08:58.264Z,62.10
2018-12-29T06:09:29.411Z,61.41
2018-12-29T06:10:00.567Z,61.96
2018-12-29T06:10:31.705Z,61.95
2018-12-29T06:11:02.860Z,62.19
2018-12-29T06:11:34.058Z,61.75
2018-12-29T06:12:05.189Z,61.71
2018-12-29T06:12:36.335Z,62.62
2018-12-29T06:13:08.539Z,62.46
2018-12-29T06:13:39.687Z,61.92
2018-12-29T06:14:10.824Z,61.99
2018-12-29T06:14:41.975Z,61.98
2018-12-29T06:15:13.131Z,62.25
2018-12-29T06:15:44.287Z,62.91
2018-12-29T06:16:15.443Z,62.95
2018-12-29T06:16:46.640Z,62.04
2018-12-29T06:17:17.780Z,62.11
2018-12-29T06:17:48.925Z,62.38
2018-12-29T06:18:20.069Z,62.43
2018-12-29T06:18:51.212Z,62.79
2018-12-29T06:19:22.357Z,62.19
2018-12-29T06:19:53.501Z,62.72
2018-12-29T06:20:24.653Z,62.37
2018-12-29T06:20:55.795Z,62.09
2018-12-29T06:21:26.939Z,61.97
2018-12-29T06:21:58.138Z,62.78
2018-12-29T06:22:29.285Z,62.83
2018-12-29T06:23:00.434Z,62.86
2018-12-29T06:23:31.586Z,62.32
2018-12-29T06:24:02.730Z,62.34
2018-12-29T06:24:33.873Z,62.50
2018-12-29T06:25:05.019Z,62.94
2018-12-29T06:25:36.156Z,62.79
2018-12-29T06:26:07.292Z,62.50
2018-12-29T06:26:38.441Z,62.96
2018-12-29T06:27:09.636Z,62.72
2018-12-29T06:27:40.790Z,62.58
2018-12-29T06:28:11.939Z,62.87
2018-12-29T06:28:43.084Z,62.70
2018-12-29T06:29:14.237Z,63.29
2018-12-29T06:29:45.390Z,63.06
2018-12-29T06:30:16.551Z,62.75
2018-12-29T06:30:47.737Z,62.74
2018-12-29T06:31:18.883Z,63.03
2018-12-29T06:31:50.026Z,63.11
2018-12-29T06:32:21.167Z,62.96
2018-12-29T06:32:52.311Z,63.28
2018-12-29T06:33:23.463Z,63.55
2018-12-29T06:33:54.610Z,63.50
2018-12-29T06:34:25.748Z,63.99
2018-12-29T06:34:56.901Z,63.81
2018-12-29T06:35:28.053Z,63.63
2018-12-29T06:35:59.242Z,63.24
2018-12-29T06:36:30.371Z,63.19
2018-12-29T06:37:05.987Z,63.27
2018-12-29T06:37:37.070Z,63.22
2018-12-29T06:38:09.316Z,63.61
2018-12-29T06:38:40.471Z,63.82
2018-12-29T06:39:11.615Z,63.67
2018-12-29T06:39:42.774Z,62.25
2018-12-29T06:40:13.932Z,62.17
2018-12-29T06:40:45.061Z,62.42
2018-12-29T06:41:16.211Z,62.43
2018-12-29T06:41:47.448Z,62.56